UPR Marlboro, Maryland
Current Conditions -  °F | °C
As of 6:08 PM on Wednesday 26 Nov 2014 (Local Time) from KADW Reporting Station
Drizzle Drizzle  
Wind Chill: 28°   Ceiling: 9500
Heat Index: 36°   Visibility: 10mi
Dew Point: 32°   Wind: 12mph
Humidity: 87%   Direction: 330°NNW
Pressure: 29.93"   Gusts: NA
Location:  38.8741°N, 76.7678°W
Report Text: KADW 262308Z AUTO 33010KT 10SM -DZ SCT008 BKN095 02/00 A2993 RMK AO2
Loading
Personal Weather Stations






























Interactive Weather Map New forecast layout! Learn more

10-Day Weather Forecast

Advertisements
Track Severe Weather on mobile